sensor_id;sensor_type;location;lat;lon;timestamp;P1;durP1;ratioP1;P2;durP2;ratioP2
62927;SDS011;51070;52.236;-0.892;2023-07-09T00:01:55;3.50;;;2.20;;
62927;SDS011;51070;52.236;-0.892;2023-07-09T00:04:21;3.10;;;1.90;;
62927;SDS011;51070;52.236;-0.892;2023-07-09T00:06:46;4.10;;;1.80;;
62927;SDS011;51070;52.236;-0.892;2023-07-09T00:09:16;3.70;;;2.40;;
62927;SDS011;51070;52.236;-0.892;2023-07-09T00:11:43;3.80;;;2.00;;
62927;SDS011;51070;52.236;-0.892;2023-07-09T00:14:11;5.30;;;2.40;;
62927;SDS011;51070;52.236;-0.892;2023-07-09T00:16:37;3.00;;;2.00;;
62927;SDS011;51070;52.236;-0.892;2023-07-09T00:19:05;4.10;;;2.00;;
62927;SDS011;51070;52.236;-0.892;2023-07-09T00:21:36;4.10;;;2.40;;
62927;SDS011;51070;52.236;-0.892;2023-07-09T00:24:02;5.60;;;2.30;;
62927;SDS011;51070;52.236;-0.892;2023-07-09T00:26:32;3.10;;;1.90;;
62927;SDS011;51070;52.236;-0.892;2023-07-09T00:28:59;3.40;;;2.30;;
62927;SDS011;51070;52.236;-0.892;2023-07-09T00:31:25;3.50;;;2.00;;
62927;SDS011;51070;52.236;-0.892;2023-07-09T00:33:51;3.20;;;2.40;;
62927;SDS011;51070;52.236;-0.892;2023-07-09T00:36:27;4.50;;;2.20;;
62927;SDS011;51070;52.236;-0.892;2023-07-09T00:38:54;3.70;;;2.20;;
62927;SDS011;51070;52.236;-0.892;2023-07-09T00:41:21;5.30;;;2.70;;
62927;SDS011;51070;52.236;-0.892;2023-07-09T00:43:48;3.40;;;2.00;;
62927;SDS011;51070;52.236;-0.892;2023-07-09T00:51:36;3.00;;;1.90;;
62927;SDS011;51070;52.236;-0.892;2023-07-09T00:54:28;3.80;;;1.90;;
62927;SDS011;51070;52.236;-0.892;2023-07-09T00:57:01;3.00;;;2.10;;
62927;SDS011;51070;52.236;-0.892;2023-07-09T00:59:33;5.10;;;1.90;;
62927;SDS011;51070;52.236;-0.892;2023-07-09T01:01:59;4.40;;;1.80;;
62927;SDS011;51070;52.236;-0.892;2023-07-09T01:04:25;4.40;;;2.10;;
62927;SDS011;51070;52.236;-0.892;2023-07-09T01:06:53;3.40;;;2.20;;
62927;SDS011;51070;52.236;-0.892;2023-07-09T01:11:47;3.90;;;2.00;;
62927;SDS011;51070;52.236;-0.892;2023-07-09T01:14:13;3.10;;;1.90;;
62927;SDS011;51070;52.236;-0.892;2023-07-09T01:16:52;3.40;;;2.00;;
62927;SDS011;51070;52.236;-0.892;2023-07-09T01:19:36;6.50;;;2.10;;
62927;SDS011;51070;52.236;-0.892;2023-07-09T01:22:08;3.40;;;2.10;;
62927;SDS011;51070;52.236;-0.892;2023-07-09T01:30:12;5.00;;;2.40;;
62927;SDS011;51070;52.236;-0.892;2023-07-09T01:32:48;4.50;;;2.50;;
62927;SDS011;51070;52.236;-0.892;2023-07-09T01:35:18;3.90;;;2.20;;
62927;SDS011;51070;52.236;-0.892;2023-07-09T01:37:45;4.90;;;2.00;;
62927;SDS011;51070;52.236;-0.892;2023-07-09T01:40:13;6.80;;;2.40;;
62927;SDS011;51070;52.236;-0.892;2023-07-09T01:42:42;4.60;;;2.20;;
62927;SDS011;51070;52.236;-0.892;2023-07-09T01:45:08;5.50;;;2.20;;
62927;SDS011;51070;52.236;-0.892;2023-07-09T01:47:35;6.20;;;2.30;;
62927;SDS011;51070;52.236;-0.892;2023-07-09T01:50:03;4.70;;;1.80;;
62927;SDS011;51070;52.236;-0.892;2023-07-09T01:52:32;4.90;;;2.10;;
62927;SDS011;51070;52.236;-0.892;2023-07-09T01:54:58;5.70;;;2.90;;
62927;SDS011;51070;52.236;-0.892;2023-07-09T01:57:27;3.90;;;2.10;;
62927;SDS011;51070;52.236;-0.892;2023-07-09T02:00:01;3.50;;;1.80;;
62927;SDS011;51070;52.236;-0.892;2023-07-09T02:02:34;11.50;;;2.20;;
62927;SDS011;51070;52.236;-0.892;2023-07-09T02:05:01;3.70;;;2.00;;
62927;SDS011;51070;52.236;-0.892;2023-07-09T02:07:27;5.20;;;2.50;;
62927;SDS011;51070;52.236;-0.892;2023-07-09T02:09:52;8.80;;;3.00;;
62927;SDS011;51070;52.236;-0.892;2023-07-09T02:12:18;4.50;;;2.40;;
62927;SDS011;51070;52.236;-0.892;2023-07-09T02:14:44;5.70;;;2.10;;
62927;SDS011;51070;52.236;-0.892;2023-07-09T02:17:11;9.80;;;2.50;;
62927;SDS011;51070;52.236;-0.892;2023-07-09T02:19:38;5.00;;;2.10;;
62927;SDS011;51070;52.236;-0.892;2023-07-09T02:22:04;6.50;;;3.00;;
62927;SDS011;51070;52.236;-0.892;2023-07-09T02:24:30;6.60;;;3.10;;
62927;SDS011;51070;52.236;-0.892;2023-07-09T02:26:57;7.40;;;3.00;;
62927;SDS011;51070;52.236;-0.892;2023-07-09T02:29:25;7.40;;;2.40;;
62927;SDS011;51070;52.236;-0.892;2023-07-09T02:31:53;4.00;;;2.20;;
62927;SDS011;51070;52.236;-0.892;2023-07-09T02:34:20;5.50;;;2.40;;
62927;SDS011;51070;52.236;-0.892;2023-07-09T02:36:46;5.00;;;2.30;;
62927;SDS011;51070;52.236;-0.892;2023-07-09T02:39:13;5.20;;;2.50;;
62927;SDS011;51070;52.236;-0.892;2023-07-09T02:41:39;6.70;;;2.20;;
62927;SDS011;51070;52.236;-0.892;2023-07-09T02:44:05;5.40;;;2.40;;
62927;SDS011;51070;52.236;-0.892;2023-07-09T02:46:32;7.70;;;2.70;;
62927;SDS011;51070;52.236;-0.892;2023-07-09T02:48:57;4.00;;;2.30;;
62927;SDS011;51070;52.236;-0.892;2023-07-09T02:51:24;5.80;;;2.20;;
62927;SDS011;51070;52.236;-0.892;2023-07-09T02:56:19;6.50;;;2.70;;
62927;SDS011;51070;52.236;-0.892;2023-07-09T02:58:44;6.40;;;2.60;;
62927;SDS011;51070;52.236;-0.892;2023-07-09T03:01:09;4.40;;;2.20;;
62927;SDS011;51070;52.236;-0.892;2023-07-09T03:03:35;6.50;;;3.20;;
62927;SDS011;51070;52.236;-0.892;2023-07-09T03:06:00;8.60;;;3.00;;
62927;SDS011;51070;52.236;-0.892;2023-07-09T03:08:26;7.30;;;2.90;;
62927;SDS011;51070;52.236;-0.892;2023-07-09T03:10:51;9.30;;;2.90;;
62927;SDS011;51070;52.236;-0.892;2023-07-09T03:13:16;8.50;;;2.40;;
62927;SDS011;51070;52.236;-0.892;2023-07-09T03:15:42;5.70;;;2.60;;
62927;SDS011;51070;52.236;-0.892;2023-07-09T03:18:07;10.90;;;2.70;;
62927;SDS011;51070;52.236;-0.892;2023-07-09T03:20:32;7.70;;;3.30;;
62927;SDS011;51070;52.236;-0.892;2023-07-09T03:22:58;6.20;;;2.30;;
62927;SDS011;51070;52.236;-0.892;2023-07-09T03:25:23;8.10;;;2.20;;
62927;SDS011;51070;52.236;-0.892;2023-07-09T03:27:48;8.80;;;3.00;;
62927;SDS011;51070;52.236;-0.892;2023-07-09T03:30:14;10.30;;;3.50;;
62927;SDS011;51070;52.236;-0.892;2023-07-09T03:32:40;9.30;;;2.60;;
62927;SDS011;51070;52.236;-0.892;2023-07-09T03:35:05;7.50;;;3.40;;
62927;SDS011;51070;52.236;-0.892;2023-07-09T03:37:31;7.40;;;2.80;;
62927;SDS011;51070;52.236;-0.892;2023-07-09T03:39:56;5.90;;;2.80;;
62927;SDS011;51070;52.236;-0.892;2023-07-09T03:42:21;3.80;;;2.30;;
62927;SDS011;51070;52.236;-0.892;2023-07-09T03:44:47;6.20;;;2.80;;
62927;SDS011;51070;52.236;-0.892;2023-07-09T03:47:12;6.80;;;2.40;;
62927;SDS011;51070;52.236;-0.892;2023-07-09T03:49:38;6.90;;;2.30;;
62927;SDS011;51070;52.236;-0.892;2023-07-09T03:52:06;9.80;;;2.70;;
62927;SDS011;51070;52.236;-0.892;2023-07-09T03:54:32;7.20;;;2.20;;
62927;SDS011;51070;52.236;-0.892;2023-07-09T03:56:58;10.20;;;3.30;;
62927;SDS011;51070;52.236;-0.892;2023-07-09T03:59:23;11.10;;;2.90;;
62927;SDS011;51070;52.236;-0.892;2023-07-09T04:01:49;10.20;;;3.10;;
62927;SDS011;51070;52.236;-0.892;2023-07-09T04:04:14;9.20;;;2.70;;
62927;SDS011;51070;52.236;-0.892;2023-07-09T04:06:40;12.60;;;3.80;;
62927;SDS011;51070;52.236;-0.892;2023-07-09T04:09:05;9.20;;;2.80;;
62927;SDS011;51070;52.236;-0.892;2023-07-09T04:11:31;6.50;;;2.70;;
62927;SDS011;51070;52.236;-0.892;2023-07-09T04:13:56;12.70;;;3.00;;
62927;SDS011;51070;52.236;-0.892;2023-07-09T04:16:21;5.60;;;2.40;;
62927;SDS011;51070;52.236;-0.892;2023-07-09T04:18:47;7.10;;;2.70;;
62927;SDS011;51070;52.236;-0.892;2023-07-09T04:21:12;9.70;;;3.00;;
62927;SDS011;51070;52.236;-0.892;2023-07-09T04:23:38;8.40;;;3.00;;
62927;SDS011;51070;52.236;-0.892;2023-07-09T04:26:03;7.70;;;2.80;;
62927;SDS011;51070;52.236;-0.892;2023-07-09T04:28:30;13.60;;;3.40;;
62927;SDS011;51070;52.236;-0.892;2023-07-09T04:30:56;15.20;;;2.80;;
62927;SDS011;51070;52.236;-0.892;2023-07-09T04:33:21;7.50;;;2.70;;
62927;SDS011;51070;52.236;-0.892;2023-07-09T04:35:47;4.60;;;2.40;;
62927;SDS011;51070;52.236;-0.892;2023-07-09T04:38:14;5.50;;;2.50;;
62927;SDS011;51070;52.236;-0.892;2023-07-09T04:40:41;7.00;;;2.80;;
62927;SDS011;51070;52.236;-0.892;2023-07-09T04:43:06;11.10;;;2.50;;
62927;SDS011;51070;52.236;-0.892;2023-07-09T04:45:31;7.20;;;2.40;;
62927;SDS011;51070;52.236;-0.892;2023-07-09T04:47:57;8.90;;;2.60;;
62927;SDS011;51070;52.236;-0.892;2023-07-09T04:50:22;7.00;;;2.40;;
62927;SDS011;51070;52.236;-0.892;2023-07-09T04:52:48;11.30;;;2.70;;
62927;SDS011;51070;52.236;-0.892;2023-07-09T04:55:13;5.10;;;2.60;;
62927;SDS011;51070;52.236;-0.892;2023-07-09T04:57:38;10.60;;;3.10;;
62927;SDS011;51070;52.236;-0.892;2023-07-09T05:00:05;8.60;;;2.70;;
62927;SDS011;51070;52.236;-0.892;2023-07-09T05:02:33;10.30;;;2.30;;
62927;SDS011;51070;52.236;-0.892;2023-07-09T05:04:58;6.60;;;2.20;;
62927;SDS011;51070;52.236;-0.892;2023-07-09T05:07:24;5.20;;;2.60;;
62927;SDS011;51070;52.236;-0.892;2023-07-09T05:09:50;8.10;;;3.10;;
62927;SDS011;51070;52.236;-0.892;2023-07-09T05:12:15;5.30;;;2.20;;
62927;SDS011;51070;52.236;-0.892;2023-07-09T05:14:41;6.30;;;2.40;;
62927;SDS011;51070;52.236;-0.892;2023-07-09T05:17:06;6.90;;;2.60;;
62927;SDS011;51070;52.236;-0.892;2023-07-09T05:19:32;4.40;;;2.20;;
62927;SDS011;51070;52.236;-0.892;2023-07-09T05:21:58;6.30;;;2.30;;
62927;SDS011;51070;52.236;-0.892;2023-07-09T05:24:24;7.10;;;2.30;;
62927;SDS011;51070;52.236;-0.892;2023-07-09T05:26:49;5.30;;;2.40;;
62927;SDS011;51070;52.236;-0.892;2023-07-09T05:29:15;7.60;;;2.40;;
62927;SDS011;51070;52.236;-0.892;2023-07-09T05:31:40;5.10;;;2.30;;
62927;SDS011;51070;52.236;-0.892;2023-07-09T05:34:07;5.90;;;2.30;;
62927;SDS011;51070;52.236;-0.892;2023-07-09T05:36:33;5.20;;;2.60;;
62927;SDS011;51070;52.236;-0.892;2023-07-09T05:38:59;10.00;;;2.80;;
62927;SDS011;51070;52.236;-0.892;2023-07-09T05:41:24;8.10;;;3.50;;
62927;SDS011;51070;52.236;-0.892;2023-07-09T05:43:51;7.20;;;2.30;;
62927;SDS011;51070;52.236;-0.892;2023-07-09T05:46:17;6.10;;;3.50;;
62927;SDS011;51070;52.236;-0.892;2023-07-09T05:48:43;9.90;;;3.20;;
62927;SDS011;51070;52.236;-0.892;2023-07-09T05:51:09;5.60;;;2.20;;
62927;SDS011;51070;52.236;-0.892;2023-07-09T05:53:34;11.60;;;3.30;;
62927;SDS011;51070;52.236;-0.892;2023-07-09T05:56:00;8.50;;;3.00;;
62927;SDS011;51070;52.236;-0.892;2023-07-09T05:58:26;5.80;;;2.80;;
62927;SDS011;51070;52.236;-0.892;2023-07-09T06:00:52;7.50;;;3.10;;
62927;SDS011;51070;52.236;-0.892;2023-07-09T06:03:19;8.50;;;2.40;;
62927;SDS011;51070;52.236;-0.892;2023-07-09T06:05:46;4.60;;;2.30;;
62927;SDS011;51070;52.236;-0.892;2023-07-09T06:08:14;10.10;;;3.10;;
62927;SDS011;51070;52.236;-0.892;2023-07-09T06:10:49;5.30;;;2.50;;
62927;SDS011;51070;52.236;-0.892;2023-07-09T06:13:16;7.30;;;2.60;;
62927;SDS011;51070;52.236;-0.892;2023-07-09T06:15:41;5.50;;;2.40;;
62927;SDS011;51070;52.236;-0.892;2023-07-09T06:18:06;4.60;;;2.50;;
62927;SDS011;51070;52.236;-0.892;2023-07-09T06:20:32;9.80;;;2.50;;
62927;SDS011;51070;52.236;-0.892;2023-07-09T06:22:57;10.10;;;2.80;;
62927;SDS011;51070;52.236;-0.892;2023-07-09T06:25:22;4.40;;;2.50;;
62927;SDS011;51070;52.236;-0.892;2023-07-09T06:27:48;7.00;;;3.00;;
62927;SDS011;51070;52.236;-0.892;2023-07-09T06:30:13;6.40;;;2.50;;
62927;SDS011;51070;52.236;-0.892;2023-07-09T06:32:39;4.10;;;2.50;;
62927;SDS011;51070;52.236;-0.892;2023-07-09T06:35:04;8.20;;;2.50;;
62927;SDS011;51070;52.236;-0.892;2023-07-09T06:37:30;7.00;;;2.00;;
62927;SDS011;51070;52.236;-0.892;2023-07-09T06:39:55;7.90;;;2.60;;
62927;SDS011;51070;52.236;-0.892;2023-07-09T06:42:20;5.30;;;2.00;;
62927;SDS011;51070;52.236;-0.892;2023-07-09T06:44:46;7.40;;;2.50;;
62927;SDS011;51070;52.236;-0.892;2023-07-09T06:47:11;7.80;;;2.50;;
62927;SDS011;51070;52.236;-0.892;2023-07-09T06:49:37;7.60;;;3.20;;
62927;SDS011;51070;52.236;-0.892;2023-07-09T06:52:02;6.00;;;2.30;;
62927;SDS011;51070;52.236;-0.892;2023-07-09T06:54:28;5.90;;;2.90;;
62927;SDS011;51070;52.236;-0.892;2023-07-09T06:56:53;11.50;;;3.60;;
62927;SDS011;51070;52.236;-0.892;2023-07-09T06:59:19;7.40;;;2.70;;
62927;SDS011;51070;52.236;-0.892;2023-07-09T07:01:44;10.30;;;3.10;;
62927;SDS011;51070;52.236;-0.892;2023-07-09T07:04:10;7.80;;;3.20;;
62927;SDS011;51070;52.236;-0.892;2023-07-09T07:06:35;6.40;;;2.50;;
62927;SDS011;51070;52.236;-0.892;2023-07-09T07:09:00;5.30;;;2.40;;
62927;SDS011;51070;52.236;-0.892;2023-07-09T07:11:26;8.20;;;2.70;;
62927;SDS011;51070;52.236;-0.892;2023-07-09T07:13:55;4.50;;;2.70;;
62927;SDS011;51070;52.236;-0.892;2023-07-09T07:16:20;5.10;;;2.60;;
62927;SDS011;51070;52.236;-0.892;2023-07-09T07:18:45;8.30;;;3.50;;
62927;SDS011;51070;52.236;-0.892;2023-07-09T07:21:11;5.70;;;2.80;;
62927;SDS011;51070;52.236;-0.892;2023-07-09T07:23:36;7.80;;;3.80;;
62927;SDS011;51070;52.236;-0.892;2023-07-09T07:26:02;9.40;;;3.80;;
62927;SDS011;51070;52.236;-0.892;2023-07-09T07:28:29;6.40;;;3.00;;
62927;SDS011;51070;52.236;-0.892;2023-07-09T07:31:01;5.00;;;2.80;;
62927;SDS011;51070;52.236;-0.892;2023-07-09T07:33:30;6.70;;;3.10;;
62927;SDS011;51070;52.236;-0.892;2023-07-09T07:35:56;10.80;;;3.40;;
62927;SDS011;51070;52.236;-0.892;2023-07-09T07:38:21;5.10;;;3.00;;
62927;SDS011;51070;52.236;-0.892;2023-07-09T07:40:47;7.30;;;3.40;;
62927;SDS011;51070;52.236;-0.892;2023-07-09T07:43:12;7.10;;;3.60;;
62927;SDS011;51070;52.236;-0.892;2023-07-09T07:45:41;7.10;;;3.80;;
62927;SDS011;51070;52.236;-0.892;2023-07-09T07:48:07;9.20;;;4.20;;
62927;SDS011;51070;52.236;-0.892;2023-07-09T07:50:33;4.60;;;3.10;;
62927;SDS011;51070;52.236;-0.892;2023-07-09T07:52:58;9.20;;;2.90;;
62927;SDS011;51070;52.236;-0.892;2023-07-09T07:55:23;7.90;;;3.90;;
62927;SDS011;51070;52.236;-0.892;2023-07-09T07:57:49;5.90;;;3.10;;
62927;SDS011;51070;52.236;-0.892;2023-07-09T08:00:14;9.40;;;3.60;;
62927;SDS011;51070;52.236;-0.892;2023-07-09T08:02:41;6.10;;;2.60;;
62927;SDS011;51070;52.236;-0.892;2023-07-09T08:05:06;7.40;;;3.30;;
62927;SDS011;51070;52.236;-0.892;2023-07-09T08:07:32;8.50;;;3.30;;
62927;SDS011;51070;52.236;-0.892;2023-07-09T08:09:57;7.90;;;3.80;;
62927;SDS011;51070;52.236;-0.892;2023-07-09T08:12:22;5.70;;;2.90;;
62927;SDS011;51070;52.236;-0.892;2023-07-09T08:14:48;8.90;;;3.50;;
62927;SDS011;51070;52.236;-0.892;2023-07-09T08:17:13;5.90;;;3.60;;
62927;SDS011;51070;52.236;-0.892;2023-07-09T08:19:49;11.30;;;3.60;;
62927;SDS011;51070;52.236;-0.892;2023-07-09T08:22:17;7.80;;;3.80;;
62927;SDS011;51070;52.236;-0.892;2023-07-09T08:24:46;6.80;;;3.30;;
62927;SDS011;51070;52.236;-0.892;2023-07-09T08:27:11;6.30;;;3.60;;
62927;SDS011;51070;52.236;-0.892;2023-07-09T08:29:36;3.50;;;2.70;;
62927;SDS011;51070;52.236;-0.892;2023-07-09T08:32:02;7.60;;;3.60;;
62927;SDS011;51070;52.236;-0.892;2023-07-09T08:34:28;7.20;;;3.70;;
62927;SDS011;51070;52.236;-0.892;2023-07-09T08:36:54;6.50;;;3.40;;
62927;SDS011;51070;52.236;-0.892;2023-07-09T08:39:20;8.50;;;3.60;;
62927;SDS011;51070;52.236;-0.892;2023-07-09T08:41:52;5.90;;;3.30;;
62927;SDS011;51070;52.236;-0.892;2023-07-09T08:47:06;8.00;;;3.20;;
62927;SDS011;51070;52.236;-0.892;2023-07-09T08:49:41;5.10;;;2.70;;
62927;SDS011;51070;52.236;-0.892;2023-07-09T08:52:23;5.10;;;3.00;;
62927;SDS011;51070;52.236;-0.892;2023-07-09T08:55:02;6.60;;;3.00;;
62927;SDS011;51070;52.236;-0.892;2023-07-09T08:57:34;5.30;;;2.80;;
62927;SDS011;51070;52.236;-0.892;2023-07-09T09:02:55;8.10;;;3.30;;
62927;SDS011;51070;52.236;-0.892;2023-07-09T09:05:24;4.90;;;2.50;;
62927;SDS011;51070;52.236;-0.892;2023-07-09T09:07:55;5.70;;;2.80;;
62927;SDS011;51070;52.236;-0.892;2023-07-09T09:13:20;4.20;;;2.50;;
62927;SDS011;51070;52.236;-0.892;2023-07-09T09:15:50;5.00;;;2.80;;
62927;SDS011;51070;52.236;-0.892;2023-07-09T09:18:27;8.70;;;3.00;;
62927;SDS011;51070;52.236;-0.892;2023-07-09T09:21:31;8.00;;;2.40;;
62927;SDS011;51070;52.236;-0.892;2023-07-09T09:23:56;7.40;;;2.30;;
62927;SDS011;51070;52.236;-0.892;2023-07-09T09:26:33;9.60;;;2.50;;
62927;SDS011;51070;52.236;-0.892;2023-07-09T09:29:01;4.20;;;1.80;;
62927;SDS011;51070;52.236;-0.892;2023-07-09T09:31:40;4.60;;;2.20;;
62927;SDS011;51070;52.236;-0.892;2023-07-09T09:34:16;4.70;;;1.60;;
62927;SDS011;51070;52.236;-0.892;2023-07-09T09:36:43;5.80;;;2.10;;
62927;SDS011;51070;52.236;-0.892;2023-07-09T09:39:09;5.20;;;2.00;;
62927;SDS011;51070;52.236;-0.892;2023-07-09T09:41:35;6.80;;;2.20;;
62927;SDS011;51070;52.236;-0.892;2023-07-09T09:44:02;5.60;;;1.90;;
62927;SDS011;51070;52.236;-0.892;2023-07-09T09:46:30;6.70;;;2.00;;
62927;SDS011;51070;52.236;-0.892;2023-07-09T09:51:27;6.80;;;1.50;;
62927;SDS011;51070;52.236;-0.892;2023-07-09T09:53:57;4.70;;;1.70;;
62927;SDS011;51070;52.236;-0.892;2023-07-09T09:56:27;4.20;;;1.80;;
62927;SDS011;51070;52.236;-0.892;2023-07-09T09:58:59;4.90;;;1.70;;
62927;SDS011;51070;52.236;-0.892;2023-07-09T10:01:34;5.70;;;1.80;;
62927;SDS011;51070;52.236;-0.892;2023-07-09T10:04:01;5.40;;;1.90;;
62927;SDS011;51070;52.236;-0.892;2023-07-09T10:08:56;5.00;;;1.70;;
62927;SDS011;51070;52.236;-0.892;2023-07-09T10:16:42;8.00;;;2.00;;
62927;SDS011;51070;52.236;-0.892;2023-07-09T10:34:01;8.60;;;1.90;;
62927;SDS011;51070;52.236;-0.892;2023-07-09T10:36:27;4.70;;;1.60;;
62927;SDS011;51070;52.236;-0.892;2023-07-09T10:39:24;4.40;;;1.40;;
62927;SDS011;51070;52.236;-0.892;2023-07-09T10:41:55;4.30;;;1.60;;
62927;SDS011;51070;52.236;-0.892;2023-07-09T10:44:32;5.50;;;1.50;;
62927;SDS011;51070;52.236;-0.892;2023-07-09T10:47:06;3.80;;;1.40;;
62927;SDS011;51070;52.236;-0.892;2023-07-09T10:49:39;4.60;;;1.20;;
62927;SDS011;51070;52.236;-0.892;2023-07-09T10:52:13;6.20;;;1.70;;
62927;SDS011;51070;52.236;-0.892;2023-07-09T10:57:54;4.00;;;1.00;;
62927;SDS011;51070;52.236;-0.892;2023-07-09T11:00:30;7.00;;;1.50;;
62927;SDS011;51070;52.236;-0.892;2023-07-09T11:03:24;3.20;;;1.40;;
62927;SDS011;51070;52.236;-0.892;2023-07-09T11:05:55;5.20;;;1.30;;
62927;SDS011;51070;52.236;-0.892;2023-07-09T11:08:39;6.50;;;2.00;;
62927;SDS011;51070;52.236;-0.892;2023-07-09T11:11:10;3.90;;;1.20;;
62927;SDS011;51070;52.236;-0.892;2023-07-09T11:13:47;3.20;;;1.00;;
62927;SDS011;51070;52.236;-0.892;2023-07-09T11:16:28;4.50;;;1.50;;
62927;SDS011;51070;52.236;-0.892;2023-07-09T11:19:01;3.40;;;1.00;;
62927;SDS011;51070;52.236;-0.892;2023-07-09T11:21:29;3.80;;;1.30;;
62927;SDS011;51070;52.236;-0.892;2023-07-09T11:23:56;3.60;;;1.30;;
62927;SDS011;51070;52.236;-0.892;2023-07-09T11:28:55;4.50;;;1.40;;
62927;SDS011;51070;52.236;-0.892;2023-07-09T11:31:34;5.50;;;1.40;;
62927;SDS011;51070;52.236;-0.892;2023-07-09T11:34:08;2.60;;;0.90;;
62927;SDS011;51070;52.236;-0.892;2023-07-09T11:37:00;3.10;;;1.10;;
62927;SDS011;51070;52.236;-0.892;2023-07-09T11:42:01;3.30;;;1.10;;
62927;SDS011;51070;52.236;-0.892;2023-07-09T11:44:30;2.90;;;1.10;;
62927;SDS011;51070;52.236;-0.892;2023-07-09T11:47:05;4.90;;;1.30;;
62927;SDS011;51070;52.236;-0.892;2023-07-09T11:50:04;3.60;;;1.30;;
62927;SDS011;51070;52.236;-0.892;2023-07-09T11:55:45;4.10;;;1.40;;
62927;SDS011;51070;52.236;-0.892;2023-07-09T11:58:13;3.10;;;1.50;;
62927;SDS011;51070;52.236;-0.892;2023-07-09T12:00:45;3.30;;;1.40;;
62927;SDS011;51070;52.236;-0.892;2023-07-09T12:03:21;3.60;;;1.20;;
62927;SDS011;51070;52.236;-0.892;2023-07-09T12:05:51;4.30;;;1.20;;
62927;SDS011;51070;52.236;-0.892;2023-07-09T12:08:36;4.00;;;1.10;;
62927;SDS011;51070;52.236;-0.892;2023-07-09T12:11:02;4.70;;;1.60;;
62927;SDS011;51070;52.236;-0.892;2023-07-09T12:13:28;3.20;;;1.10;;
62927;SDS011;51070;52.236;-0.892;2023-07-09T12:15:54;3.90;;;1.20;;
62927;SDS011;51070;52.236;-0.892;2023-07-09T12:18:19;5.60;;;1.50;;
62927;SDS011;51070;52.236;-0.892;2023-07-09T12:20:47;2.90;;;1.40;;
62927;SDS011;51070;52.236;-0.892;2023-07-09T12:26:05;2.10;;;1.20;;
62927;SDS011;51070;52.236;-0.892;2023-07-09T12:28:31;4.10;;;1.50;;
62927;SDS011;51070;52.236;-0.892;2023-07-09T12:30:57;3.60;;;1.30;;
62927;SDS011;51070;52.236;-0.892;2023-07-09T12:33:24;4.40;;;1.30;;
62927;SDS011;51070;52.236;-0.892;2023-07-09T12:36:00;2.90;;;1.20;;
62927;SDS011;51070;52.236;-0.892;2023-07-09T12:38:30;2.80;;;1.20;;
62927;SDS011;51070;52.236;-0.892;2023-07-09T12:43:42;4.40;;;1.00;;
62927;SDS011;51070;52.236;-0.892;2023-07-09T12:46:08;3.40;;;1.20;;
62927;SDS011;51070;52.236;-0.892;2023-07-09T12:48:33;5.20;;;2.00;;
62927;SDS011;51070;52.236;-0.892;2023-07-09T12:50:59;3.10;;;1.40;;
62927;SDS011;51070;52.236;-0.892;2023-07-09T12:53:25;3.70;;;1.40;;
62927;SDS011;51070;52.236;-0.892;2023-07-09T12:58:26;4.40;;;1.40;;
62927;SDS011;51070;52.236;-0.892;2023-07-09T13:00:56;3.80;;;1.10;;
62927;SDS011;51070;52.236;-0.892;2023-07-09T13:03:26;6.50;;;1.60;;
62927;SDS011;51070;52.236;-0.892;2023-07-09T13:05:55;6.50;;;1.90;;
62927;SDS011;51070;52.236;-0.892;2023-07-09T13:08:24;4.60;;;1.60;;
62927;SDS011;51070;52.236;-0.892;2023-07-09T13:10:50;4.10;;;1.20;;
62927;SDS011;51070;52.236;-0.892;2023-07-09T13:13:18;4.40;;;1.40;;
62927;SDS011;51070;52.236;-0.892;2023-07-09T13:15:49;3.40;;;1.50;;
62927;SDS011;51070;52.236;-0.892;2023-07-09T13:18:21;3.20;;;1.10;;
62927;SDS011;51070;52.236;-0.892;2023-07-09T13:20:48;5.10;;;1.50;;
62927;SDS011;51070;52.236;-0.892;2023-07-09T13:23:18;4.30;;;1.60;;
62927;SDS011;51070;52.236;-0.892;2023-07-09T13:25:55;4.00;;;1.60;;
62927;SDS011;51070;52.236;-0.892;2023-07-09T13:28:27;2.90;;;1.40;;
62927;SDS011;51070;52.236;-0.892;2023-07-09T13:31:09;3.10;;;1.20;;
62927;SDS011;51070;52.236;-0.892;2023-07-09T13:33:36;5.00;;;1.50;;
62927;SDS011;51070;52.236;-0.892;2023-07-09T13:36:03;4.30;;;1.60;;
62927;SDS011;51070;52.236;-0.892;2023-07-09T13:38:29;4.20;;;1.40;;
62927;SDS011;51070;52.236;-0.892;2023-07-09T13:40:55;4.50;;;1.60;;
62927;SDS011;51070;52.236;-0.892;2023-07-09T13:43:28;4.70;;;1.40;;
62927;SDS011;51070;52.236;-0.892;2023-07-09T13:45:56;3.00;;;1.50;;
62927;SDS011;51070;52.236;-0.892;2023-07-09T13:48:22;4.60;;;1.60;;
62927;SDS011;51070;52.236;-0.892;2023-07-09T13:50:50;5.10;;;1.90;;
62927;SDS011;51070;52.236;-0.892;2023-07-09T13:53:18;4.70;;;1.50;;
62927;SDS011;51070;52.236;-0.892;2023-07-09T13:55:46;3.20;;;1.60;;
62927;SDS011;51070;52.236;-0.892;2023-07-09T13:58:12;3.10;;;1.50;;
62927;SDS011;51070;52.236;-0.892;2023-07-09T14:00:41;4.40;;;1.40;;
62927;SDS011;51070;52.236;-0.892;2023-07-09T14:03:12;3.30;;;1.40;;
62927;SDS011;51070;52.236;-0.892;2023-07-09T14:05:40;7.60;;;2.20;;
62927;SDS011;51070;52.236;-0.892;2023-07-09T14:08:07;4.60;;;1.60;;
62927;SDS011;51070;52.236;-0.892;2023-07-09T14:10:34;6.30;;;2.00;;
62927;SDS011;51070;52.236;-0.892;2023-07-09T14:12:59;6.80;;;2.10;;
62927;SDS011;51070;52.236;-0.892;2023-07-09T14:15:27;4.60;;;1.90;;
62927;SDS011;51070;52.236;-0.892;2023-07-09T14:17:56;5.30;;;1.60;;
62927;SDS011;51070;52.236;-0.892;2023-07-09T14:20:21;5.10;;;1.60;;
62927;SDS011;51070;52.236;-0.892;2023-07-09T14:22:48;6.50;;;2.30;;
62927;SDS011;51070;52.236;-0.892;2023-07-09T14:25:18;7.30;;;3.60;;
62927;SDS011;51070;52.236;-0.892;2023-07-09T14:27:45;7.20;;;2.10;;
62927;SDS011;51070;52.236;-0.892;2023-07-09T14:30:15;4.50;;;2.00;;
62927;SDS011;51070;52.236;-0.892;2023-07-09T14:32:42;3.80;;;1.80;;
62927;SDS011;51070;52.236;-0.892;2023-07-09T14:35:17;3.80;;;2.00;;
62927;SDS011;51070;52.236;-0.892;2023-07-09T14:37:46;5.80;;;2.00;;
62927;SDS011;51070;52.236;-0.892;2023-07-09T14:40:16;3.80;;;1.60;;
62927;SDS011;51070;52.236;-0.892;2023-07-09T14:42:43;4.60;;;1.80;;
62927;SDS011;51070;52.236;-0.892;2023-07-09T14:45:15;6.90;;;2.80;;
62927;SDS011;51070;52.236;-0.892;2023-07-09T14:47:43;5.70;;;1.80;;
62927;SDS011;51070;52.236;-0.892;2023-07-09T14:50:09;5.00;;;2.00;;
62927;SDS011;51070;52.236;-0.892;2023-07-09T14:52:35;9.00;;;2.30;;
62927;SDS011;51070;52.236;-0.892;2023-07-09T14:55:01;5.90;;;1.80;;
62927;SDS011;51070;52.236;-0.892;2023-07-09T14:57:27;6.40;;;2.30;;
62927;SDS011;51070;52.236;-0.892;2023-07-09T14:59:55;7.60;;;2.50;;
62927;SDS011;51070;52.236;-0.892;2023-07-09T15:02:28;9.80;;;2.70;;
62927;SDS011;51070;52.236;-0.892;2023-07-09T15:04:58;4.00;;;2.20;;
62927;SDS011;51070;52.236;-0.892;2023-07-09T15:07:23;5.90;;;2.30;;
62927;SDS011;51070;52.236;-0.892;2023-07-09T15:09:54;5.60;;;2.10;;
62927;SDS011;51070;52.236;-0.892;2023-07-09T15:12:27;3.30;;;1.70;;
62927;SDS011;51070;52.236;-0.892;2023-07-09T15:14:58;5.00;;;1.80;;
62927;SDS011;51070;52.236;-0.892;2023-07-09T15:17:37;4.70;;;2.00;;
62927;SDS011;51070;52.236;-0.892;2023-07-09T15:20:03;3.70;;;1.70;;
62927;SDS011;51070;52.236;-0.892;2023-07-09T15:22:32;4.30;;;1.60;;
62927;SDS011;51070;52.236;-0.892;2023-07-09T15:24:59;3.60;;;1.40;;
62927;SDS011;51070;52.236;-0.892;2023-07-09T15:27:25;5.30;;;1.50;;
62927;SDS011;51070;52.236;-0.892;2023-07-09T15:29:51;4.30;;;1.80;;
62927;SDS011;51070;52.236;-0.892;2023-07-09T15:32:16;4.10;;;1.60;;
62927;SDS011;51070;52.236;-0.892;2023-07-09T15:34:42;3.70;;;1.40;;
62927;SDS011;51070;52.236;-0.892;2023-07-09T15:37:12;8.30;;;1.70;;
62927;SDS011;51070;52.236;-0.892;2023-07-09T15:39:41;4.40;;;1.30;;
62927;SDS011;51070;52.236;-0.892;2023-07-09T15:42:10;3.80;;;1.50;;
62927;SDS011;51070;52.236;-0.892;2023-07-09T15:44:37;5.20;;;1.40;;
62927;SDS011;51070;52.236;-0.892;2023-07-09T15:47:03;4.10;;;1.60;;
62927;SDS011;51070;52.236;-0.892;2023-07-09T15:49:30;4.70;;;1.20;;